sensor_id;sensor_type;location;lat;lon;timestamp;pressure;altitude;pressure_sealevel;temperature;humidity
31483;BME280;18103;52.246;8.052;2023-03-22T00:00:09;99803.97;;;10.32;79.96
31483;BME280;18103;52.246;8.052;2023-03-22T00:02:39;99799.78;;;10.30;80.48
31483;BME280;18103;52.246;8.052;2023-03-22T00:05:09;99800.66;;;10.30;79.99
31483;BME280;18103;52.246;8.052;2023-03-22T00:07:35;99799.31;;;10.36;79.38
31483;BME280;18103;52.246;8.052;2023-03-22T00:10:05;99790.44;;;10.37;79.14
31483;BME280;18103;52.246;8.052;2023-03-22T00:12:30;99790.44;;;10.37;79.19
31483;BME280;18103;52.246;8.052;2023-03-22T00:14:56;99787.19;;;10.33;79.31
31483;BME280;18103;52.246;8.052;2023-03-22T00:17:21;99782.06;;;10.32;79.18
31483;BME280;18103;52.246;8.052;2023-03-22T00:19:50;99783.72;;;10.33;78.79
31483;BME280;18103;52.246;8.052;2023-03-22T00:22:20;99778.34;;;10.34;79.05
31483;BME280;18103;52.246;8.052;2023-03-22T00:24:46;99785.38;;;10.34;78.97
31483;BME280;18103;52.246;8.052;2023-03-22T00:27:13;99774.59;;;10.37;78.54
31483;BME280;18103;52.246;8.052;2023-03-22T00:29:41;99781.03;;;10.44;78.05
31483;BME280;18103;52.246;8.052;2023-03-22T00:32:06;99778.53;;;10.42;78.15
31483;BME280;18103;52.246;8.052;2023-03-22T00:34:32;99773.06;;;10.34;78.75
31483;BME280;18103;52.246;8.052;2023-03-22T00:36:58;99776.69;;;10.43;78.87
31483;BME280;18103;52.246;8.052;2023-03-22T00:39:23;99779.63;;;10.40;78.78
31483;BME280;18103;52.246;8.052;2023-03-22T00:41:52;99780.72;;;10.37;78.54
31483;BME280;18103;52.246;8.052;2023-03-22T00:44:19;99780.09;;;10.34;78.97
31483;BME280;18103;52.246;8.052;2023-03-22T00:46:45;99774.34;;;10.40;78.68
31483;BME280;18103;52.246;8.052;2023-03-22T00:49:10;99769.47;;;10.35;78.64
31483;BME280;18103;52.246;8.052;2023-03-22T00:51:36;99777.94;;;10.39;78.63
31483;BME280;18103;52.246;8.052;2023-03-22T00:54:01;99775.44;;;10.37;79.00
31483;BME280;18103;52.246;8.052;2023-03-22T00:56:27;99775.44;;;10.37;78.73
31483;BME280;18103;52.246;8.052;2023-03-22T00:58:53;99773.25;;;10.42;78.78
31483;BME280;18103;52.246;8.052;2023-03-22T01:01:21;99761.97;;;10.40;78.74
31483;BME280;18103;52.246;8.052;2023-03-22T01:03:46;99770.59;;;10.42;79.07
31483;BME280;18103;52.246;8.052;2023-03-22T01:06:15;99768.09;;;10.41;78.90
31483;BME280;18103;52.246;8.052;2023-03-22T01:08:40;99759.75;;;10.36;79.18
31483;BME280;18103;52.246;8.052;2023-03-22T01:11:07;99752.97;;;10.43;78.72
31483;BME280;18103;52.246;8.052;2023-03-22T01:13:34;99749.66;;;10.51;78.38
31483;BME280;18103;52.246;8.052;2023-03-22T01:16:04;99752.97;;;10.43;78.52
31483;BME280;18103;52.246;8.052;2023-03-22T01:18:32;99750.22;;;10.54;78.42
31483;BME280;18103;52.246;8.052;2023-03-22T01:20:58;99752.38;;;10.39;78.67
31483;BME280;18103;52.246;8.052;2023-03-22T01:23:24;99750.19;;;10.44;78.96
31483;BME280;18103;52.246;8.052;2023-03-22T01:25:52;99745.88;;;10.43;78.86
31483;BME280;18103;52.246;8.052;2023-03-22T01:28:17;99746.84;;;10.42;78.70
31483;BME280;18103;52.246;8.052;2023-03-22T01:30:46;99745.03;;;10.43;78.59
31483;BME280;18103;52.246;8.052;2023-03-22T01:33:15;99739.31;;;10.38;78.82
31483;BME280;18103;52.246;8.052;2023-03-22T01:35:43;99736.69;;;10.38;78.73
31483;BME280;18103;52.246;8.052;2023-03-22T01:38:08;99723.88;;;10.33;78.95
31483;BME280;18103;52.246;8.052;2023-03-22T01:40:36;99736.25;;;10.33;78.84
31483;BME280;18103;52.246;8.052;2023-03-22T01:43:02;99727.63;;;10.31;78.74
31483;BME280;18103;52.246;8.052;2023-03-22T01:50:46;99728.97;;;10.25;79.19
31483;BME280;18103;52.246;8.052;2023-03-22T01:53:15;99726.63;;;10.22;79.38
31483;BME280;18103;52.246;8.052;2023-03-22T01:55:45;99723.72;;;10.25;79.42
31483;BME280;18103;52.246;8.052;2023-03-22T01:58:15;99718.97;;;10.19;79.65
31483;BME280;18103;52.246;8.052;2023-03-22T02:00:45;99722.16;;;10.22;79.59
31483;BME280;18103;52.246;8.052;2023-03-22T02:03:18;99707.06;;;10.24;79.52
31483;BME280;18103;52.246;8.052;2023-03-22T02:05:49;99704.69;;;10.21;79.72
31483;BME280;18103;52.246;8.052;2023-03-22T02:08:15;99709.69;;;10.24;79.69
31483;BME280;18103;52.246;8.052;2023-03-22T02:10:40;99711.25;;;10.27;79.56
31483;BME280;18103;52.246;8.052;2023-03-22T02:15:42;99703.06;;;10.30;79.59
31483;BME280;18103;52.246;8.052;2023-03-22T02:24:01;99704.28;;;10.26;80.18
31483;BME280;18103;52.246;8.052;2023-03-22T02:29:18;99696.50;;;10.24;79.73
31483;BME280;18103;52.246;8.052;2023-03-22T02:37:42;99690.97;;;10.27;79.86
31483;BME280;18103;52.246;8.052;2023-03-22T02:45:51;99688.91;;;10.31;79.63
31483;BME280;18103;52.246;8.052;2023-03-22T02:48:27;99676.41;;;10.33;79.47
31483;BME280;18103;52.246;8.052;2023-03-22T02:51:02;99675.81;;;10.30;79.50
31483;BME280;18103;52.246;8.052;2023-03-22T02:56:04;99681.09;;;10.30;79.36
31483;BME280;18103;52.246;8.052;2023-03-22T02:58:38;99672.81;;;10.34;79.46
31483;BME280;18103;52.246;8.052;2023-03-22T03:01:15;99663.75;;;10.27;79.34
31483;BME280;18103;52.246;8.052;2023-03-22T03:03:48;99663.75;;;10.27;79.78
31483;BME280;18103;52.246;8.052;2023-03-22T03:06:17;99646.44;;;10.34;79.73
31483;BME280;18103;52.246;8.052;2023-03-22T03:08:45;99654.59;;;10.31;79.68
31483;BME280;18103;52.246;8.052;2023-03-22T03:11:14;99647.50;;;10.32;79.77
31483;BME280;18103;52.246;8.052;2023-03-22T03:13:40;99659.63;;;10.34;79.56
31483;BME280;18103;52.246;8.052;2023-03-22T03:16:09;99658.88;;;10.32;79.74
31483;BME280;18103;52.246;8.052;2023-03-22T03:19:02;99658.22;;;10.30;79.90
31483;BME280;18103;52.246;8.052;2023-03-22T03:21:36;99660.84;;;10.30;80.02
31483;BME280;18103;52.246;8.052;2023-03-22T03:24:28;99650.75;;;10.35;79.74
31483;BME280;18103;52.246;8.052;2023-03-22T03:29:40;99647.28;;;10.35;79.84
31483;BME280;18103;52.246;8.052;2023-03-22T03:32:53;99646.81;;;10.30;80.10
31483;BME280;18103;52.246;8.052;2023-03-22T03:35:24;99639.75;;;10.30;79.83
31483;BME280;18103;52.246;8.052;2023-03-22T03:37:59;99638.25;;;10.37;79.90
31483;BME280;18103;52.246;8.052;2023-03-22T03:40:29;99640.59;;;10.40;79.86
31483;BME280;18103;52.246;8.052;2023-03-22T03:42:58;99635.16;;;10.32;79.83
31483;BME280;18103;52.246;8.052;2023-03-22T03:45:28;99639.22;;;10.36;79.88
31483;BME280;18103;52.246;8.052;2023-03-22T03:47:59;99634.06;;;10.35;79.95
31483;BME280;18103;52.246;8.052;2023-03-22T03:50:27;99644.75;;;10.33;79.79
31483;BME280;18103;52.246;8.052;2023-03-22T03:52:53;99633.38;;;10.33;80.15
31483;BME280;18103;52.246;8.052;2023-03-22T03:55:21;99638.25;;;10.37;79.96
31483;BME280;18103;52.246;8.052;2023-03-22T03:57:46;99642.94;;;10.34;80.16
31483;BME280;18103;52.246;8.052;2023-03-22T04:00:13;99631.88;;;10.40;79.76
31483;BME280;18103;52.246;8.052;2023-03-22T04:02:43;99631.44;;;10.35;80.17
31483;BME280;18103;52.246;8.052;2023-03-22T04:05:12;99625.44;;;10.33;80.12
31483;BME280;18103;52.246;8.052;2023-03-22T04:07:38;99624.88;;;10.29;80.33
31483;BME280;18103;52.246;8.052;2023-03-22T04:10:03;99625.44;;;10.33;80.31
31483;BME280;18103;52.246;8.052;2023-03-22T04:12:30;99642.25;;;10.32;80.33
31483;BME280;18103;52.246;8.052;2023-03-22T04:14:55;99629.50;;;10.37;80.08
31483;BME280;18103;52.246;8.052;2023-03-22T04:17:23;99631.88;;;10.40;79.90
31483;BME280;18103;52.246;8.052;2023-03-22T04:19:49;99624.47;;;10.34;80.07
31483;BME280;18103;52.246;8.052;2023-03-22T04:22:17;99628.91;;;10.33;80.05
31483;BME280;18103;52.246;8.052;2023-03-22T04:24:43;99618.97;;;10.47;79.66
31483;BME280;18103;52.246;8.052;2023-03-22T04:27:19;99617.97;;;10.38;80.04
31483;BME280;18103;52.246;8.052;2023-03-22T04:29:45;99615.72;;;10.33;80.28
31483;BME280;18103;52.246;8.052;2023-03-22T04:32:18;99616.81;;;10.31;80.11
31483;BME280;18103;52.246;8.052;2023-03-22T04:34:50;99616.53;;;10.34;79.90
31483;BME280;18103;52.246;8.052;2023-03-22T04:37:16;99609.88;;;10.30;80.23
31483;BME280;18103;52.246;8.052;2023-03-22T04:39:42;99610.34;;;10.35;79.94
31483;BME280;18103;52.246;8.052;2023-03-22T04:42:08;99605.63;;;10.38;79.83
31483;BME280;18103;52.246;8.052;2023-03-22T04:44:33;99603.91;;;10.27;80.20
31483;BME280;18103;52.246;8.052;2023-03-22T04:46:59;99605.78;;;10.37;80.14
31483;BME280;18103;52.246;8.052;2023-03-22T04:49:24;99601.28;;;10.27;80.27
31483;BME280;18103;52.246;8.052;2023-03-22T04:51:54;99602.38;;;10.25;80.42
31483;BME280;18103;52.246;8.052;2023-03-22T04:54:23;99616.97;;;10.29;80.10
31483;BME280;18103;52.246;8.052;2023-03-22T04:56:51;99600.72;;;10.24;80.30
31483;BME280;18103;52.246;8.052;2023-03-22T04:59:16;99599.75;;;10.25;80.33
31483;BME280;18103;52.246;8.052;2023-03-22T05:01:48;99598.63;;;10.27;80.23
31483;BME280;18103;52.246;8.052;2023-03-22T05:04:14;99595.72;;;10.21;80.56
31483;BME280;18103;52.246;8.052;2023-03-22T05:06:40;99596.28;;;10.24;80.15
31483;BME280;18103;52.246;8.052;2023-03-22T05:09:06;99590.72;;;10.18;80.57
31483;BME280;18103;52.246;8.052;2023-03-22T05:11:34;99587.66;;;10.22;80.29
31483;BME280;18103;52.246;8.052;2023-03-22T05:14:02;99579.50;;;10.16;80.80
31483;BME280;18103;52.246;8.052;2023-03-22T05:16:28;99578.34;;;10.18;80.74
31483;BME280;18103;52.246;8.052;2023-03-22T05:18:53;99586.53;;;10.15;80.63
31483;BME280;18103;52.246;8.052;2023-03-22T05:21:21;99571.97;;;10.11;80.89
31483;BME280;18103;52.246;8.052;2023-03-22T05:23:54;99575.69;;;10.08;80.71
31483;BME280;18103;52.246;8.052;2023-03-22T05:26:23;99574.47;;;10.13;80.91
31483;BME280;18103;52.246;8.052;2023-03-22T05:28:53;99577.38;;;10.09;80.94
31483;BME280;18103;52.246;8.052;2023-03-22T05:31:20;99574.88;;;10.08;80.99
31483;BME280;18103;52.246;8.052;2023-03-22T05:33:48;99580.44;;;10.05;81.22
31483;BME280;18103;52.246;8.052;2023-03-22T05:36:18;99563.38;;;10.09;80.89
31483;BME280;18103;52.246;8.052;2023-03-22T05:38:44;99561.84;;;10.06;80.96
31483;BME280;18103;52.246;8.052;2023-03-22T05:41:11;99574.19;;;10.06;81.06
31483;BME280;18103;52.246;8.052;2023-03-22T05:43:40;99569.75;;;10.06;81.04
31483;BME280;18103;52.246;8.052;2023-03-22T05:46:09;99570.72;;;10.05;81.11
31483;BME280;18103;52.246;8.052;2023-03-22T05:48:37;99565.56;;;10.04;81.40
31483;BME280;18103;52.246;8.052;2023-03-22T05:51:07;99571.13;;;10.10;80.96
31483;BME280;18103;52.246;8.052;2023-03-22T05:53:37;99566.16;;;10.17;80.96
31483;BME280;18103;52.246;8.052;2023-03-22T05:56:03;99576.00;;;10.15;80.76
31483;BME280;18103;52.246;8.052;2023-03-22T05:58:34;99564.63;;;10.15;81.07
31483;BME280;18103;52.246;8.052;2023-03-22T06:01:05;99570.59;;;10.17;80.88
31483;BME280;18103;52.246;8.052;2023-03-22T06:03:33;99561.72;;;10.18;81.05
31483;BME280;18103;52.246;8.052;2023-03-22T06:06:01;99566.84;;;10.19;81.21
31483;BME280;18103;52.246;8.052;2023-03-22T06:08:26;99574.34;;;10.24;81.00
31483;BME280;18103;52.246;8.052;2023-03-22T06:10:52;99574.75;;;10.29;80.56
31483;BME280;18103;52.246;8.052;2023-03-22T06:13:23;99568.38;;;10.32;80.36
31483;BME280;18103;52.246;8.052;2023-03-22T06:15:53;99582.69;;;10.29;80.74
31483;BME280;18103;52.246;8.052;2023-03-22T06:18:21;99573.81;;;10.30;80.51
31483;BME280;18103;52.246;8.052;2023-03-22T06:20:46;99564.91;;;10.31;80.24
31483;BME280;18103;52.246;8.052;2023-03-22T06:23:11;99570.47;;;10.38;80.21
31483;BME280;18103;52.246;8.052;2023-03-22T06:25:37;99562.31;;;10.41;79.84
31483;BME280;18103;52.246;8.052;2023-03-22T06:28:02;99557.88;;;10.41;80.42
31483;BME280;18103;52.246;8.052;2023-03-22T06:30:28;99555.91;;;10.43;79.90
31483;BME280;18103;52.246;8.052;2023-03-22T06:32:56;99545.25;;;10.45;80.11
31483;BME280;18103;52.246;8.052;2023-03-22T06:35:25;99545.91;;;10.47;79.91
31483;BME280;18103;52.246;8.052;2023-03-22T06:37:52;99553.41;;;10.52;79.84
31483;BME280;18103;52.246;8.052;2023-03-22T06:40:18;99539.69;;;10.48;79.86
31483;BME280;18103;52.246;8.052;2023-03-22T06:42:43;99549.13;;;10.51;79.99
31483;BME280;18103;52.246;8.052;2023-03-22T06:45:09;99546.59;;;10.49;79.33
31483;BME280;18103;52.246;8.052;2023-03-22T06:47:38;99543.13;;;10.58;79.37
31483;BME280;18103;52.246;8.052;2023-03-22T06:50:04;99539.97;;;10.55;79.16
31483;BME280;18103;52.246;8.052;2023-03-22T06:52:30;99539.53;;;10.59;79.56
31483;BME280;18103;52.246;8.052;2023-03-22T06:54:55;99542.31;;;10.58;79.31
31483;BME280;18103;52.246;8.052;2023-03-22T06:57:23;99538.97;;;10.56;79.30
31483;BME280;18103;52.246;8.052;2023-03-22T06:59:48;99535.91;;;10.60;79.08
31483;BME280;18103;52.246;8.052;2023-03-22T07:02:19;99534.94;;;10.61;78.90
31483;BME280;18103;52.246;8.052;2023-03-22T07:04:45;99529.13;;;10.58;78.62
31483;BME280;18103;52.246;8.052;2023-03-22T07:07:15;99533.00;;;10.64;78.40
31483;BME280;18103;52.246;8.052;2023-03-22T07:09:41;99531.59;;;10.69;78.33
31483;BME280;18103;52.246;8.052;2023-03-22T07:12:06;99538.81;;;10.67;78.38
31483;BME280;18103;52.246;8.052;2023-03-22T07:14:32;99528.53;;;10.64;78.71
31483;BME280;18103;52.246;8.052;2023-03-22T07:17:02;99525.34;;;10.70;78.06
31483;BME280;18103;52.246;8.052;2023-03-22T07:19:30;99522.13;;;10.76;78.21
31483;BME280;18103;52.246;8.052;2023-03-22T07:21:58;99512.25;;;10.78;77.88
31483;BME280;18103;52.246;8.052;2023-03-22T07:24:23;99519.63;;;10.75;77.95
31483;BME280;18103;52.246;8.052;2023-03-22T07:26:48;99512.69;;;10.74;77.58
31483;BME280;18103;52.246;8.052;2023-03-22T07:29:14;99526.69;;;10.74;77.59
31483;BME280;18103;52.246;8.052;2023-03-22T07:31:39;99509.50;;;10.70;77.84
31483;BME280;18103;52.246;8.052;2023-03-22T07:34:09;99505.19;;;10.79;77.57
31483;BME280;18103;52.246;8.052;2023-03-22T07:36:37;99492.00;;;10.69;77.45
31483;BME280;18103;52.246;8.052;2023-03-22T07:39:02;99506.88;;;10.70;77.93
31483;BME280;18103;52.246;8.052;2023-03-22T07:41:30;99494.34;;;10.72;77.62
31483;BME280;18103;52.246;8.052;2023-03-22T07:43:57;99504.75;;;10.74;77.53
31483;BME280;18103;52.246;8.052;2023-03-22T07:46:22;99509.19;;;10.83;76.90
31483;BME280;18103;52.246;8.052;2023-03-22T07:48:48;99506.69;;;10.91;77.16
31483;BME280;18103;52.246;8.052;2023-03-22T07:51:13;99517.47;;;10.98;77.04
31483;BME280;18103;52.246;8.052;2023-03-22T07:53:43;99514.28;;;11.04;76.28
31483;BME280;18103;52.246;8.052;2023-03-22T07:56:10;99506.47;;;11.12;76.47
31483;BME280;18103;52.246;8.052;2023-03-22T07:58:36;99507.84;;;11.17;76.29
31483;BME280;18103;52.246;8.052;2023-03-22T08:01:05;99515.91;;;11.15;76.90
31483;BME280;18103;52.246;8.052;2023-03-22T08:03:36;99509.75;;;11.24;76.28
31483;BME280;18103;52.246;8.052;2023-03-22T08:06:02;99505.16;;;11.26;76.14
31483;BME280;18103;52.246;8.052;2023-03-22T08:08:35;99503.28;;;11.37;76.39
31483;BME280;18103;52.246;8.052;2023-03-22T08:11:02;99510.56;;;11.53;76.16
31483;BME280;18103;52.246;8.052;2023-03-22T08:13:27;99520.97;;;11.64;75.86
31483;BME280;18103;52.246;8.052;2023-03-22T08:15:52;99519.16;;;11.64;75.54
31483;BME280;18103;52.246;8.052;2023-03-22T08:18:21;99516.66;;;12.09;74.87
31483;BME280;18103;52.246;8.052;2023-03-22T08:21:00;99515.66;;;12.10;74.40
31483;BME280;18103;52.246;8.052;2023-03-22T08:23:26;99507.00;;;12.18;73.91
31483;BME280;18103;52.246;8.052;2023-03-22T08:25:54;99490.50;;;12.24;74.26
31483;BME280;18103;52.246;8.052;2023-03-22T08:28:20;99500.81;;;12.09;73.97
31483;BME280;18103;52.246;8.052;2023-03-22T08:30:47;99495.47;;;11.91;74.07
31483;BME280;18103;52.246;8.052;2023-03-22T08:33:13;99492.09;;;11.98;73.79
31483;BME280;18103;52.246;8.052;2023-03-22T08:35:41;99509.66;;;11.90;74.25
31483;BME280;18103;52.246;8.052;2023-03-22T08:38:09;99494.06;;;11.96;73.76
31483;BME280;18103;52.246;8.052;2023-03-22T08:40:34;99489.75;;;12.13;73.27
31483;BME280;18103;52.246;8.052;2023-03-22T08:42:59;99507.22;;;12.06;74.21
31483;BME280;18103;52.246;8.052;2023-03-22T08:45:25;99504.41;;;12.26;73.50
31483;BME280;18103;52.246;8.052;2023-03-22T08:47:53;99494.88;;;12.15;73.40
31483;BME280;18103;52.246;8.052;2023-03-22T08:50:21;99490.88;;;12.29;73.06
31483;BME280;18103;52.246;8.052;2023-03-22T08:52:49;99493.28;;;12.22;73.12
31483;BME280;18103;52.246;8.052;2023-03-22T08:55:15;99490.50;;;12.24;72.66
31483;BME280;18103;52.246;8.052;2023-03-22T08:57:42;99484.69;;;12.20;72.25
31483;BME280;18103;52.246;8.052;2023-03-22T09:00:15;99485.75;;;12.09;72.05
31483;BME280;18103;52.246;8.052;2023-03-22T09:02:43;99492.63;;;12.20;72.49
31483;BME280;18103;52.246;8.052;2023-03-22T09:05:12;99490.50;;;12.06;72.31
31483;BME280;18103;52.246;8.052;2023-03-22T09:07:38;99487.09;;;12.13;72.35
31483;BME280;18103;52.246;8.052;2023-03-22T09:10:04;99487.25;;;12.12;72.43
31483;BME280;18103;52.246;8.052;2023-03-22T09:12:29;99477.44;;;12.04;71.51
31483;BME280;18103;52.246;8.052;2023-03-22T09:14:54;99475.72;;;12.13;72.07
31483;BME280;18103;52.246;8.052;2023-03-22T09:17:20;99478.78;;;12.26;71.64
31483;BME280;18103;52.246;8.052;2023-03-22T09:19:45;99479.91;;;12.24;71.76
31483;BME280;18103;52.246;8.052;2023-03-22T09:22:14;99478.19;;;12.32;71.39
31483;BME280;18103;52.246;8.052;2023-03-22T09:24:39;99488.97;;;12.21;71.70
31483;BME280;18103;52.246;8.052;2023-03-22T09:27:05;99471.41;;;12.12;71.09
31483;BME280;18103;52.246;8.052;2023-03-22T09:29:32;99467.81;;;12.21;70.38
31483;BME280;18103;52.246;8.052;2023-03-22T09:32:00;99469.94;;;12.18;70.69
31483;BME280;18103;52.246;8.052;2023-03-22T09:34:28;99464.50;;;12.19;70.52
31483;BME280;18103;52.246;8.052;2023-03-22T09:36:53;99469.56;;;12.12;70.56
31483;BME280;18103;52.246;8.052;2023-03-22T09:39:18;99458.47;;;12.09;70.17
31483;BME280;18103;52.246;8.052;2023-03-22T09:42:04;99471.75;;;12.17;70.14
31483;BME280;18103;52.246;8.052;2023-03-22T09:44:35;99465.31;;;12.20;69.50
31483;BME280;18103;52.246;8.052;2023-03-22T09:47:04;99462.16;;;12.16;69.06
31483;BME280;18103;52.246;8.052;2023-03-22T09:49:37;99487.94;;;12.14;68.77
31483;BME280;18103;52.246;8.052;2023-03-22T09:52:11;99460.97;;;12.10;68.14
31483;BME280;18103;52.246;8.052;2023-03-22T09:54:39;99468.44;;;12.15;68.36
31483;BME280;18103;52.246;8.052;2023-03-22T09:57:34;99490.06;;;12.28;68.14
31483;BME280;18103;52.246;8.052;2023-03-22T10:00:17;99468.34;;;12.25;67.99
31483;BME280;18103;52.246;8.052;2023-03-22T10:10:42;99448.66;;;12.45;67.03
31483;BME280;18103;52.246;8.052;2023-03-22T10:13:35;99472.16;;;12.48;66.87
31483;BME280;18103;52.246;8.052;2023-03-22T10:16:02;99473.00;;;12.49;65.90
31483;BME280;18103;52.246;8.052;2023-03-22T10:18:45;99475.38;;;12.60;66.50
31483;BME280;18103;52.246;8.052;2023-03-22T10:21:16;99462.94;;;12.53;66.31
31483;BME280;18103;52.246;8.052;2023-03-22T10:26:40;99459.66;;;12.59;65.92
31483;BME280;18103;52.246;8.052;2023-03-22T10:29:37;99462.31;;;12.59;65.68
31483;BME280;18103;52.246;8.052;2023-03-22T10:32:16;99455.38;;;12.58;66.52
31483;BME280;18103;52.246;8.052;2023-03-22T10:34:45;99457.06;;;12.67;66.39
31483;BME280;18103;52.246;8.052;2023-03-22T10:37:15;99472.47;;;12.72;65.41
31483;BME280;18103;52.246;8.052;2023-03-22T10:39:46;99471.81;;;12.70;64.79
31483;BME280;18103;52.246;8.052;2023-03-22T10:42:19;99470.50;;;12.74;65.00
31483;BME280;18103;52.246;8.052;2023-03-22T10:45:01;99479.97;;;12.76;65.05
31483;BME280;18103;52.246;8.052;2023-03-22T10:50:38;99473.16;;;12.74;64.35
31483;BME280;18103;52.246;8.052;2023-03-22T10:55:31;99467.91;;;13.08;64.17
31483;BME280;18103;52.246;8.052;2023-03-22T11:00:30;99458.66;;;13.21;63.27
31483;BME280;18103;52.246;8.052;2023-03-22T11:02:59;99457.34;;;13.16;63.58
31483;BME280;18103;52.246;8.052;2023-03-22T11:05:28;99461.28;;;13.12;63.02
31483;BME280;18103;52.246;8.052;2023-03-22T11:07:55;99477.63;;;13.08;62.80
31483;BME280;18103;52.246;8.052;2023-03-22T11:10:31;99469.81;;;12.98;62.63
31483;BME280;18103;52.246;8.052;2023-03-22T11:15:33;99467.94;;;13.16;62.33
31483;BME280;18103;52.246;8.052;2023-03-22T11:20:29;99465.66;;;13.30;62.70
31483;BME280;18103;52.246;8.052;2023-03-22T11:22:59;99466.09;;;13.51;62.18
31483;BME280;18103;52.246;8.052;2023-03-22T11:25:35;99474.56;;;13.63;61.68
31483;BME280;18103;52.246;8.052;2023-03-22T11:30:33;99481.88;;;13.61;61.56
31483;BME280;18103;52.246;8.052;2023-03-22T11:35:35;99476.41;;;13.63;61.59
31483;BME280;18103;52.246;8.052;2023-03-22T11:38:03;99465.28;;;13.67;61.53
31483;BME280;18103;52.246;8.052;2023-03-22T11:40:34;99465.09;;;13.61;61.78
31483;BME280;18103;52.246;8.052;2023-03-22T11:43:16;99459.97;;;13.59;61.84
31483;BME280;18103;52.246;8.052;2023-03-22T11:45:48;99469.72;;;13.50;61.12
31483;BME280;18103;52.246;8.052;2023-03-22T11:48:21;99465.41;;;13.49;61.89
31483;BME280;18103;52.246;8.052;2023-03-22T11:50:47;99457.59;;;13.40;62.02
31483;BME280;18103;52.246;8.052;2023-03-22T11:53:19;99460.50;;;13.28;61.77
31483;BME280;18103;52.246;8.052;2023-03-22T11:55:47;99458.75;;;13.37;62.22
31483;BME280;18103;52.246;8.052;2023-03-22T12:04:06;99447.31;;;13.37;62.23
31483;BME280;18103;52.246;8.052;2023-03-22T12:06:37;99443.47;;;13.31;62.77
31483;BME280;18103;52.246;8.052;2023-03-22T12:09:42;99448.31;;;13.35;62.35
31483;BME280;18103;52.246;8.052;2023-03-22T12:12:18;99451.31;;;13.41;62.76
31483;BME280;18103;52.246;8.052;2023-03-22T12:17:41;99445.13;;;13.32;63.25
31483;BME280;18103;52.246;8.052;2023-03-22T12:22:41;99447.91;;;13.22;64.54
31483;BME280;18103;52.246;8.052;2023-03-22T12:25:15;99440.38;;;13.09;64.85
31483;BME280;18103;52.246;8.052;2023-03-22T12:27:45;99440.66;;;12.98;64.85
31483;BME280;18103;52.246;8.052;2023-03-22T12:30:19;99437.47;;;12.86;65.54
31483;BME280;18103;52.246;8.052;2023-03-22T12:32:58;99436.28;;;12.80;67.38
31483;BME280;18103;52.246;8.052;2023-03-22T12:35:34;99434.41;;;12.73;67.35
31483;BME280;18103;52.246;8.052;2023-03-22T12:38:12;99435.00;;;12.58;67.82
31483;BME280;18103;52.246;8.052;2023-03-22T12:40:48;99434.13;;;12.49;68.52
31483;BME280;18103;52.246;8.052;2023-03-22T12:45:51;99449.56;;;12.36;70.51
31483;BME280;18103;52.246;8.052;2023-03-22T12:50:58;99451.09;;;12.39;70.85
31483;BME280;18103;52.246;8.052;2023-03-22T12:53:27;99457.25;;;12.47;71.09
31483;BME280;18103;52.246;8.052;2023-03-22T12:55:55;99459.84;;;12.39;72.09
31483;BME280;18103;52.246;8.052;2023-03-22T12:58:24;99465.78;;;12.33;73.28
31483;BME280;18103;52.246;8.052;2023-03-22T13:00:55;99466.31;;;12.19;74.06
31483;BME280;18103;52.246;8.052;2023-03-22T13:03:38;99471.31;;;12.22;72.87
31483;BME280;18103;52.246;8.052;2023-03-22T13:06:06;99459.78;;;12.31;73.31
31483;BME280;18103;52.246;8.052;2023-03-22T13:11:35;99469.66;;;12.03;72.54
31483;BME280;18103;52.246;8.052;2023-03-22T13:14:02;99477.13;;;12.07;72.84
31483;BME280;18103;52.246;8.052;2023-03-22T13:19:35;99476.28;;;12.07;73.38
31483;BME280;18103;52.246;8.052;2023-03-22T13:22:26;99475.47;;;12.06;73.21
31483;BME280;18103;52.246;8.052;2023-03-22T13:27:50;99488.63;;;12.16;72.74
31483;BME280;18103;52.246;8.052;2023-03-22T13:35:26;99476.75;;;12.20;71.11
31483;BME280;18103;52.246;8.052;2023-03-22T13:37:53;99466.25;;;12.28;71.22
31483;BME280;18103;52.246;8.052;2023-03-22T13:40:48;99463.19;;;12.41;70.40
31483;BME280;18103;52.246;8.052;2023-03-22T13:43:35;99457.44;;;12.28;70.80
31483;BME280;18103;52.246;8.052;2023-03-22T13:59:12;99446.28;;;12.34;69.24
31483;BME280;18103;52.246;8.052;2023-03-22T14:04:41;99421.16;;;12.38;68.84
31483;BME280;18103;52.246;8.052;2023-03-22T14:07:39;99429.75;;;12.40;67.89
31483;BME280;18103;52.246;8.052;2023-03-22T14:15:19;99420.75;;;12.51;68.38
31483;BME280;18103;52.246;8.052;2023-03-22T14:18:19;99417.25;;;12.50;68.11
31483;BME280;18103;52.246;8.052;2023-03-22T14:20:51;99414.75;;;12.49;67.72
31483;BME280;18103;52.246;8.052;2023-03-22T14:23:41;99423.88;;;12.55;67.41
31483;BME280;18103;52.246;8.052;2023-03-22T14:26:15;99427.88;;;12.59;67.92
31483;BME280;18103;52.246;8.052;2023-03-22T14:28:42;99429.88;;;12.57;67.31
31483;BME280;18103;52.246;8.052;2023-03-22T14:31:34;99428.03;;;12.57;66.77
31483;BME280;18103;52.246;8.052;2023-03-22T14:34:02;99433.19;;;12.59;66.40
31483;BME280;18103;52.246;8.052;2023-03-22T14:36:41;99437.34;;;12.61;66.79
31483;BME280;18103;52.246;8.052;2023-03-22T14:39:17;99437.81;;;12.57;66.50
31483;BME280;18103;52.246;8.052;2023-03-22T14:42:03;99440.78;;;12.54;66.95
31483;BME280;18103;52.246;8.052;2023-03-22T14:44:36;99435.13;;;12.48;66.50
31483;BME280;18103;52.246;8.052;2023-03-22T14:47:24;99431.50;;;12.49;66.05
31483;BME280;18103;52.246;8.052;2023-03-22T14:49:55;99430.44;;;12.42;65.86
31483;BME280;18103;52.246;8.052;2023-03-22T14:52:28;99429.28;;;12.45;65.94
31483;BME280;18103;52.246;8.052;2023-03-22T14:55:00;99439.06;;;12.44;66.08
31483;BME280;18103;52.246;8.052;2023-03-22T14:57:30;99438.28;;;12.52;65.80
31483;BME280;18103;52.246;8.052;2023-03-22T14:59:58;99432.78;;;12.45;66.54
31483;BME280;18103;52.246;8.052;2023-03-22T15:02:36;99441.94;;;12.33;66.52
31483;BME280;18103;52.246;8.052;2023-03-22T15:05:05;99431.22;;;12.35;66.47
31483;BME280;18103;52.246;8.052;2023-03-22T15:07:42;99439.63;;;12.30;66.51